Time;durP1;ratioP1;P1;durP2;ratioP2;P2;SDS_P1;SDS_P2;PMS_P1;PMS_P2;Temp;Humidity;BMP_temperature;BMP_pressure;BME280_temperature;BME280_humidity;BME280_pressure;Samples;Min_cycle;Max_cycle;Signal;HPM_P1;HPM_P2
2023/07/29 00:03:39;;;;;;;19.60;3.20;;;;;;;22.18;52.22;100685.47;16115153;19;131165;-58
2023/07/29 00:09:03;;;;;;;17.30;3.03;;;;;;;22.19;52.20;100676.84;16112219;19;130370;-58
2023/07/29 00:14:24;;;;;;;19.80;2.65;;;;;;;22.18;52.50;100668.75;16114032;19;129786;-58
2023/07/29 00:19:47;;;;;;;10.05;2.15;;;;;;;22.17;52.23;100654.00;16117446;19;131020;-58
2023/07/29 00:25:09;;;;;;;14.15;2.72;;;;;;;22.18;52.48;100663.19;16118409;19;131089;-58
2023/07/29 00:30:31;;;;;;;14.32;2.25;;;;;;;22.18;52.54;100668.75;16113581;19;129960;-58
2023/07/29 00:35:53;;;;;;;14.43;2.45;;;;;;;22.18;52.12;100668.75;16112656;19;130634;-58
2023/07/29 00:41:15;;;;;;;11.88;2.05;;;;;;;22.16;52.56;100673.75;16111568;19;130524;-59
2023/07/29 00:46:40;;;;;;;12.23;2.50;;;;;;;22.17;52.12;100689.38;16113512;19;130948;-58
2023/07/29 00:52:02;;;;;;;17.10;2.33;;;;;;;22.19;52.00;100681.56;16115542;19;129713;-58
2023/07/29 00:57:26;;;;;;;10.82;2.42;;;;;;;22.20;51.88;100688.81;16116177;19;129432;-58
2023/07/29 01:02:48;;;;;;;13.93;2.25;;;;;;;22.18;52.07;100677.09;16119208;19;129975;-58
2023/07/29 01:08:25;;;;;;;8.25;2.17;;;;;;;22.19;52.32;100678.78;16121505;19;129471;-59
2023/07/29 01:13:54;;;;;;;7.13;1.83;;;;;;;22.19;52.24;100676.84;16121233;19;130327;-58
2023/07/29 01:19:42;;;;;;;13.55;2.08;;;;;;;22.23;52.10;100688.31;16117276;19;130178;-59
2023/07/29 01:25:04;;;;;;;10.55;2.20;;;;;;;22.20;51.82;100677.66;16118230;19;132151;-58
2023/07/29 01:30:33;;;;;;;10.45;2.00;;;;;;;22.20;52.12;100672.97;16119266;19;129492;-59
2023/07/29 01:35:59;;;;;;;12.70;2.38;;;;;;;22.20;51.88;100666.53;16120113;19;130379;-58
2023/07/29 01:41:22;;;;;;;18.05;2.42;;;;;;;22.20;52.07;100660.97;16127920;19;130635;-56
2023/07/29 01:46:44;;;;;;;5.75;1.83;;;;;;;22.19;52.00;100637.00;16183831;19;131144;-58
2023/07/29 01:52:06;;;;;;;11.00;1.70;;;;;;;22.20;52.13;100644.25;16202686;19;128921;-60
2023/07/29 01:57:28;;;;;;;11.15;1.73;;;;;;;22.19;52.14;100643.41;16203822;19;128701;-59
2023/07/29 02:02:50;;;;;;;12.00;2.33;;;;;;;22.19;52.16;100643.41;16187468;19;134215;-57
2023/07/29 02:08:12;;;;;;;8.18;1.92;;;;;;;22.18;51.98;100646.47;16166021;19;130055;-56
2023/07/29 02:13:34;;;;;;;6.78;1.60;;;;;;;22.19;52.24;100656.50;16177645;19;130331;-59
2023/07/29 02:18:56;;;;;;;13.18;1.90;;;;;;;22.20;51.75;100667.38;16157890;19;129517;-58
2023/07/29 02:24:18;;;;;;;13.18;1.90;;;;;;;22.19;51.93;100676.84;16140229;19;128915;-59
2023/07/29 02:29:40;;;;;;;13.93;2.00;;;;;;;22.21;51.84;100662.66;16140522;19;129866;-60
2023/07/29 02:35:01;;;;;;;11.20;2.10;;;;;;;22.23;51.68;100650.13;16135116;19;129838;-59
2023/07/29 02:40:26;;;;;;;15.68;1.95;;;;;;;22.23;51.74;100646.50;16136008;19;130434;-59
2023/07/29 02:45:48;;;;;;;10.50;1.77;;;;;;;22.22;51.54;100659.59;16132973;19;130234;-59
2023/07/29 02:51:10;;;;;;;4.30;1.50;;;;;;;22.22;51.94;100664.34;16134122;19;130261;-59
2023/07/29 02:56:32;;;;;;;17.25;1.90;;;;;;;22.22;51.77;100653.19;16130901;19;129259;-59
2023/07/29 03:01:54;;;;;;;7.60;1.40;;;;;;;22.20;51.93;100655.38;16117821;19;130279;-60
2023/07/29 03:07:17;;;;;;;5.90;1.45;;;;;;;22.18;52.29;100655.66;16117476;19;129755;-60
2023/07/29 03:12:39;;;;;;;9.68;1.48;;;;;;;22.19;52.13;100653.72;16117450;19;130218;-60
2023/07/29 03:18:01;;;;;;;8.40;1.40;;;;;;;22.18;51.90;100657.59;16117851;19;131256;-59
2023/07/29 03:23:23;;;;;;;6.13;1.50;;;;;;;22.19;52.03;100650.91;16117982;19;129372;-60
2023/07/29 03:28:45;;;;;;;9.27;1.40;;;;;;;22.19;51.97;100617.50;16123158;19;129701;-60
2023/07/29 03:34:07;;;;;;;7.13;1.23;;;;;;;22.19;51.74;100614.69;16113989;19;130849;-60
2023/07/29 03:39:29;;;;;;;6.95;1.30;;;;;;;22.20;52.10;100610.81;16118179;19;131366;-60
2023/07/29 03:44:50;;;;;;;7.55;1.25;;;;;;;22.20;51.81;100624.72;16114919;19;130038;-60
2023/07/29 03:50:12;;;;;;;6.55;1.25;;;;;;;22.20;51.57;100635.88;16113651;19;130451;-60
2023/07/29 03:55:34;;;;;;;7.70;1.20;;;;;;;22.20;51.88;100644.25;16117837;19;131442;-60
2023/07/29 04:00:56;;;;;;;5.55;1.35;;;;;;;22.20;52.23;100649.81;16119043;19;129564;-60
2023/07/29 04:06:18;;;;;;;7.03;1.30;;;;;;;22.19;51.89;100653.72;16116229;19;130558;-60
2023/07/29 04:11:40;;;;;;;4.80;1.30;;;;;;;22.19;51.86;100659.28;16114758;19;130420;-60
2023/07/29 04:17:02;;;;;;;4.47;1.20;;;;;;;22.19;52.03;100664.84;16117646;19;130301;-59
2023/07/29 04:22:24;;;;;;;8.65;1.33;;;;;;;22.18;51.86;100661.25;16117118;19;131051;-59
2023/07/29 04:27:46;;;;;;;4.45;1.30;;;;;;;22.19;51.85;100673.22;16119613;19;130099;-60
2023/07/29 04:33:08;;;;;;;5.10;1.20;;;;;;;22.19;52.04;100681.56;16118239;19;130796;-58
2023/07/29 04:38:33;;;;;;;7.00;1.15;;;;;;;22.18;51.97;100682.69;16115402;19;129674;-60
2023/07/29 04:43:55;;;;;;;3.43;0.90;;;;;;;22.18;51.94;100674.31;16113861;19;131034;-58
2023/07/29 04:49:17;;;;;;;9.00;1.25;;;;;;;22.16;52.22;100694.13;16112641;19;130836;-57
2023/07/29 04:54:38;;;;;;;6.60;1.15;;;;;;;22.15;52.17;100688.84;16107903;19;130922;-59
2023/07/29 05:00:00;;;;;;;4.53;1.13;;;;;;;22.13;52.34;100678.78;16112514;19;130279;-56
2023/07/29 05:05:22;;;;;;;3.78;1.10;;;;;;;22.15;51.93;100669.31;16106693;19;130541;-60
2023/07/29 05:10:44;;;;;;;4.00;1.00;;;;;;;22.16;51.86;100674.63;16115146;19;130720;-60
2023/07/29 05:16:06;;;;;;;3.67;1.30;;;;;;;22.17;51.74;100672.66;16111077;19;132128;-60
2023/07/29 05:21:29;;;;;;;3.17;0.70;;;;;;;22.17;51.75;100687.44;16110387;19;132035;-56
2023/07/29 05:26:51;;;;;;;2.88;0.90;;;;;;;22.18;51.78;100672.38;16135697;19;129601;-58
2023/07/29 05:32:13;;;;;;;3.63;1.00;;;;;;;22.19;52.03;100678.78;16139575;19;130751;-58
2023/07/29 05:37:35;;;;;;;7.90;1.00;;;;;;;22.19;52.23;100667.63;16142281;19;129735;-59
2023/07/29 05:42:57;;;;;;;4.03;0.85;;;;;;;22.19;51.84;100662.06;16138117;19;130999;-59
2023/07/29 05:48:22;;;;;;;3.42;0.88;;;;;;;22.19;51.99;100662.06;16134250;19;130717;-59
2023/07/29 05:53:44;;;;;;;6.70;0.98;;;;;;;22.17;51.75;100670.72;16135541;19;131367;-59
2023/07/29 05:59:06;;;;;;;9.10;1.23;;;;;;;22.18;51.83;100663.19;16132123;19;131431;-58
2023/07/29 06:04:27;;;;;;;6.78;1.08;;;;;;;22.17;51.85;100683.78;16138451;19;130687;-59
2023/07/29 06:09:49;;;;;;;5.88;1.08;;;;;;;22.16;51.53;100682.13;16140114;19;129791;-60
2023/07/29 06:15:12;;;;;;;7.10;1.00;;;;;;;22.14;51.12;100685.19;16135353;19;131025;-59
2023/07/29 06:20:34;;;;;;;8.15;1.17;;;;;;;22.15;51.09;100691.63;16137361;19;130090;-56
2023/07/29 06:26:00;;;;;;;5.13;1.15;;;;;;;22.15;51.07;100686.88;16140712;19;129935;-60
2023/07/29 06:31:22;;;;;;;7.45;0.85;;;;;;;22.15;51.30;100694.41;16131591;19;130381;-57
2023/07/29 06:36:44;;;;;;;3.35;1.08;;;;;;;22.13;50.90;100691.88;16127722;19;130014;-58
2023/07/29 06:42:06;;;;;;;12.95;1.17;;;;;;;22.15;51.24;100688.84;16121852;19;130348;-58
2023/07/29 06:47:28;;;;;;;5.82;1.08;;;;;;;22.22;50.53;100686.63;16116590;19;130712;-58
2023/07/29 06:52:50;;;;;;;8.13;1.20;;;;;;;22.32;50.36;100692.22;16118891;19;130876;-59
2023/07/29 06:58:12;;;;;;;10.20;1.55;;;;;;;22.31;50.26;100696.09;16115940;19;130414;-57
2023/07/29 07:03:34;;;;;;;5.93;1.13;;;;;;;22.32;50.27;100702.53;16115349;19;129897;-58
2023/07/29 07:08:56;;;;;;;7.70;1.48;;;;;;;22.30;50.48;100699.19;16119374;19;130033;-58
2023/07/29 07:14:18;;;;;;;15.60;1.48;;;;;;;22.27;50.23;100706.97;16125582;19;133507;-59
2023/07/29 07:19:40;;;;;;;6.32;1.25;;;;;;;22.28;50.17;100713.38;16124935;19;129630;-58
2023/07/29 07:25:02;;;;;;;5.20;1.10;;;;;;;22.25;50.10;100711.97;16122341;19;131301;-58
2023/07/29 07:30:26;;;;;;;4.38;1.13;;;;;;;22.27;50.02;100712.56;16119480;19;129711;-59
2023/07/29 07:35:48;;;;;;;5.05;1.20;;;;;;;22.27;50.18;100725.66;16119087;19;130461;-53
2023/07/29 07:41:10;;;;;;;3.58;1.10;;;;;;;22.27;49.68;100734.03;16119655;19;129758;-58
2023/07/29 07:46:32;;;;;;;3.00;0.80;;;;;;;22.25;49.77;100736.25;16120134;19;129836;-57
2023/07/29 07:51:54;;;;;;;25.52;3.38;;;;;;;22.24;49.21;100726.22;16113205;19;130310;-57
2023/07/29 07:57:15;;;;;;;46.58;4.18;;;;;;;22.21;49.40;100719.25;16118459;19;131211;-57
2023/07/29 08:02:37;;;;;;;12.70;2.42;;;;;;;22.20;49.09;100719.47;16118732;19;130417;-58
2023/07/29 08:08:00;;;;;;;12.77;1.95;;;;;;;22.18;48.78;100724.47;16118801;19;129357;-58
2023/07/29 08:13:22;;;;;;;42.83;4.45;;;;;;;22.18;48.28;100724.47;16119925;19;129657;-58
2023/07/29 08:18:44;;;;;;;18.95;2.67;;;;;;;22.20;48.32;100719.47;16118602;19;130666;-57
2023/07/29 08:24:07;;;;;;;14.30;1.73;;;;;;;22.29;48.13;100706.69;16117311;19;131144;-55
2023/07/29 08:29:29;;;;;;;16.40;1.98;;;;;;;22.36;48.03;100710.06;16113243;19;130200;-53
2023/07/29 08:34:51;;;;;;;18.95;1.85;;;;;;;22.44;47.91;100712.28;16115143;19;129451;-57
2023/07/29 08:40:13;;;;;;;8.70;1.45;;;;;;;22.55;47.99;100709.50;16114715;19;134202;-54
2023/07/29 08:45:36;;;;;;;6.03;1.25;;;;;;;22.61;47.43;100716.75;16116385;19;129665;-53
2023/07/29 08:51:01;;;;;;;3.72;1.17;;;;;;;22.68;47.17;100711.72;16114062;19;131125;-54
2023/07/29 08:56:23;;;;;;;2.67;1.02;;;;;;;22.73;47.04;100716.47;16115251;19;129669;-56
2023/07/29 09:01:47;;;;;;;5.55;0.93;;;;;;;22.79;47.00;100708.94;16111511;19;129634;-55
2023/07/29 09:07:10;;;;;;;3.70;1.10;;;;;;;22.80;46.93;100713.41;16111807;19;130898;-56
2023/07/29 09:12:32;;;;;;;2.75;0.82;;;;;;;22.82;47.12;100712.03;16113899;19;130532;-53
2023/07/29 09:17:56;;;;;;;4.05;1.10;;;;;;;22.80;47.15;100702.25;16113805;19;129462;-55
2023/07/29 09:23:20;;;;;;;2.35;1.10;;;;;;;22.79;46.99;100707.00;16114251;19;129445;-57
2023/07/29 09:28:42;;;;;;;3.78;1.35;;;;;;;22.79;47.04;100706.13;16113206;19;129848;-56
2023/07/29 09:34:05;;;;;;;2.35;0.90;;;;;;;22.79;46.84;100703.34;16112734;19;130248;-56
2023/07/29 09:39:28;;;;;;;2.75;1.23;;;;;;;22.80;47.48;100700.31;16104699;19;129684;-56
2023/07/29 09:44:50;;;;;;;3.13;0.90;;;;;;;22.77;47.23;100700.84;16111445;19;131391;-57
2023/07/29 09:50:12;;;;;;;1.38;0.85;;;;;;;22.77;47.29;100694.47;16109441;19;129703;-56
2023/07/29 09:55:34;;;;;;;1.63;1.08;;;;;;;22.71;47.15;100691.66;16110288;19;129708;-54
2023/07/29 10:00:56;;;;;;;4.22;1.48;;;;;;;22.67;47.26;100693.31;16102816;19;133893;-56
2023/07/29 10:06:19;;;;;;;9.98;1.73;;;;;;;22.64;47.44;100695.84;16108859;19;130740;-56
2023/07/29 10:11:42;;;;;;;12.80;1.48;;;;;;;22.68;47.33;100689.41;16114085;19;129825;-58
2023/07/29 10:17:07;;;;;;;8.70;1.42;;;;;;;22.69;47.47;100691.09;16126421;19;129442;-58
2023/07/29 10:22:33;;;;;;;;;;;;;;;22.67;47.90;100678.56;16124485;19;130024;-59
2023/07/29 10:28:00;;;;;;;3.27;1.00;;;;;;;22.70;47.87;100670.47;16125461;19;130085;-57
2023/07/29 10:33:22;;;;;;;5.78;1.20;;;;;;;22.70;48.06;100673.25;16126209;19;129267;-59
2023/07/29 10:38:45;;;;;;;4.40;1.42;;;;;;;22.72;48.32;100679.38;16126868;19;129195;-57
2023/07/29 10:44:42;;;;;;;4.38;1.23;;;;;;;22.78;48.05;100685.78;16123704;19;129690;-57
2023/07/29 10:50:20;;;;;;;2.58;1.10;;;;;;;22.79;48.19;100686.63;16125522;19;129777;-56
2023/07/29 10:55:44;;;;;;;2.83;1.00;;;;;;;22.81;48.14;100674.09;16121459;19;130219;-57
2023/07/29 11:01:29;;;;;;;4.35;1.20;;;;;;;22.83;47.99;100673.78;16121545;19;130545;-59
2023/07/29 11:07:03;;;;;;;2.73;1.20;;;;;;;22.87;48.00;100660.97;16121836;19;130219;-59
2023/07/29 11:12:52;;;;;;;3.33;1.20;;;;;;;22.86;48.17;100645.34;16121157;19;131039;-60
2023/07/29 11:18:15;;;;;;;6.32;1.52;;;;;;;22.89;48.12;100642.00;16118941;19;131509;-61
2023/07/29 11:23:37;;;;;;;3.35;0.95;;;;;;;22.92;48.03;100643.41;16123035;19;129671;-60
2023/07/29 11:28:59;;;;;;;3.65;1.25;;;;;;;22.87;47.79;100649.81;16124137;19;129860;-60
2023/07/29 11:34:31;;;;;;;2.75;1.00;;;;;;;22.84;47.74;100670.72;16118605;19;130634;-59
2023/07/29 11:39:53;;;;;;;2.83;1.10;;;;;;;22.78;48.16;100696.09;16116542;19;129573;-59
2023/07/29 11:45:16;;;;;;;3.75;1.30;;;;;;;22.72;48.44;100686.91;16114796;19;130602;-58
2023/07/29 11:50:39;;;;;;;2.45;1.13;;;;;;;22.68;47.82;100691.38;16112527;19;130649;-58
2023/07/29 11:56:03;;;;;;;3.80;1.20;;;;;;;22.64;47.91;100707.84;16117309;19;130350;-58
2023/07/29 12:01:26;;;;;;;4.37;1.23;;;;;;;22.61;48.34;100707.53;16112103;19;129773;-58
2023/07/29 12:06:48;;;;;;;3.13;1.20;;;;;;;22.58;48.65;100703.38;16113426;19;130662;-59
2023/07/29 12:12:10;;;;;;;1.35;0.93;;;;;;;22.59;48.46;100702.25;16109402;19;130519;-56
2023/07/29 12:17:37;;;;;;;1.38;0.93;;;;;;;22.63;48.42;100717.31;16112891;19;131171;-59
2023/07/29 12:23:05;;;;;;;3.17;1.33;;;;;;;22.63;48.29;100716.47;16114924;19;130028;-57
2023/07/29 12:28:30;;;;;;;1.90;1.00;;;;;;;22.65;48.20;100723.44;16112037;19;130291;-55
2023/07/29 12:33:56;;;;;;;4.70;1.05;;;;;;;22.67;48.24;100709.22;16112771;19;130206;-57
2023/07/29 12:39:21;;;;;;;2.03;1.20;;;;;;;22.72;48.09;100698.06;16115580;19;134196;-58
2023/07/29 12:44:43;;;;;;;3.88;0.90;;;;;;;22.70;48.27;100687.19;16109983;19;129889;-60
2023/07/29 12:50:06;;;;;;;6.00;1.20;;;;;;;22.72;48.44;100696.13;16106999;19;129569;-56
2023/07/29 12:55:28;;;;;;;3.28;1.10;;;;;;;22.80;48.64;100694.72;16112511;19;130810;-51
2023/07/29 13:00:50;;;;;;;3.60;1.25;;;;;;;22.87;49.04;100706.41;16108524;19;129494;-52
2023/07/29 13:06:12;;;;;;;6.15;1.35;;;;;;;22.96;48.69;100711.44;16108427;19;130209;-53
2023/07/29 13:11:34;;;;;;;6.57;1.48;;;;;;;23.02;48.67;100700.00;16112372;19;129772;-55
2023/07/29 13:16:56;;;;;;;8.80;1.48;;;;;;;23.05;49.38;100691.06;16110451;19;129764;-54
2023/07/29 13:22:20;;;;;;;10.00;1.42;;;;;;;23.11;49.44;100686.31;16114060;19;131088;-53
2023/07/29 13:27:42;;;;;;;5.13;1.27;;;;;;;23.14;49.48;100674.59;16111835;19;131274;-55
2023/07/29 13:33:04;;;;;;;6.32;1.48;;;;;;;23.19;49.31;100676.53;16112991;19;131087;-60
2023/07/29 13:38:26;;;;;;;10.13;1.40;;;;;;;23.22;49.57;100662.00;16109960;19;132005;-55
2023/07/29 13:43:48;;;;;;;12.15;1.60;;;;;;;23.23;49.36;100666.47;16110897;19;130756;-61
2023/07/29 13:49:10;;;;;;;9.98;1.35;;;;;;;23.27;49.37;100677.91;16121700;19;130740;-54
2023/07/29 13:54:32;;;;;;;3.13;1.20;;;;;;;23.30;49.22;100672.59;16120032;19;131487;-56
2023/07/29 13:59:54;;;;;;;2.83;1.10;;;;;;;23.28;49.43;100674.81;16109921;19;130764;-58
2023/07/29 14:05:16;;;;;;;4.15;1.10;;;;;;;23.27;49.70;100678.72;16125736;19;129619;-56
2023/07/29 14:10:38;;;;;;;2.95;0.82;;;;;;;23.28;49.77;100674.81;16122369;19;133126;-58
2023/07/29 14:16:03;;;;;;;3.22;0.80;;;;;;;23.28;49.42;100683.19;16121909;19;129650;-57
2023/07/29 14:21:25;;;;;;;2.35;0.88;;;;;;;23.26;49.31;100687.41;16115607;19;130086;-53
2023/07/29 14:26:47;;;;;;;2.67;1.10;;;;;;;23.30;49.04;100678.16;16119633;19;130451;-59
2023/07/29 14:32:09;;;;;;;6.80;1.02;;;;;;;23.32;49.34;100686.28;16120689;19;132733;-62
2023/07/29 14:37:31;;;;;;;4.72;1.15;;;;;;;23.34;49.25;100675.63;16118537;19;129591;-57
2023/07/29 14:42:53;;;;;;;9.98;1.20;;;;;;;23.35;49.47;100671.72;16125082;19;131101;-58
2023/07/29 14:48:15;;;;;;;4.82;0.90;;;;;;;23.38;49.20;100673.13;16120038;19;130071;-59
2023/07/29 14:53:37;;;;;;;9.85;1.00;;;;;;;23.38;49.42;100678.72;16119218;19;131610;-59
2023/07/29 14:59:00;;;;;;;6.63;1.58;;;;;;;23.34;49.43;100684.88;16117723;19;131279;-59
2023/07/29 15:04:22;;;;;;;5.82;1.10;;;;;;;23.35;49.55;100686.53;16124887;19;130594;-60
2023/07/29 15:09:43;;;;;;;5.82;1.10;;;;;;;23.36;49.83;100692.94;16126036;19;129458;-62
2023/07/29 15:15:06;;;;;;;6.03;1.10;;;;;;;23.39;49.84;100694.31;16126099;19;129801;-60
2023/07/29 15:20:28;;;;;;;5.38;1.30;;;;;;;23.41;49.66;100697.66;16119580;19;129305;-60
2023/07/29 15:25:50;;;;;;;4.25;1.52;;;;;;;23.43;50.30;100710.25;16120552;19;130515;-59
2023/07/29 15:31:13;;;;;;;3.67;1.58;;;;;;;23.49;50.07;100697.09;16117201;19;130667;-57
2023/07/29 15:36:35;;;;;;;3.90;1.48;;;;;;;23.57;50.04;100688.13;16118952;19;129953;-52
2023/07/29 15:41:57;;;;;;;5.57;1.20;;;;;;;23.60;49.64;100689.53;16114808;19;130824;-60
2023/07/29 15:47:19;;;;;;;2.97;1.50;;;;;;;23.59;50.09;100696.22;16115234;19;131502;-59
2023/07/29 15:52:42;;;;;;;3.80;1.50;;;;;;;23.58;49.93;100684.25;16114413;19;131068;-60
2023/07/29 15:58:04;;;;;;;4.85;1.90;;;;;;;23.55;50.14;100690.34;16109667;19;130678;-63
2023/07/29 16:03:26;;;;;;;3.97;1.70;;;;;;;23.57;50.37;100690.91;16114544;19;129663;-60
2023/07/29 16:08:49;;;;;;;5.90;1.40;;;;;;;23.56;50.08;100699.59;16114036;19;130864;-58
2023/07/29 16:14:10;;;;;;;4.15;1.58;;;;;;;23.54;50.32;100699.84;16117475;19;130681;-62
2023/07/29 16:19:32;;;;;;;3.15;1.52;;;;;;;23.54;50.62;100682.28;16114665;19;130016;-63
2023/07/29 16:24:54;;;;;;;3.15;1.40;;;;;;;23.54;50.62;100688.69;16120459;19;130275;-62
2023/07/29 16:30:16;;;;;;;2.17;1.30;;;;;;;23.56;50.17;100691.22;16116893;19;129363;-60
2023/07/29 16:35:38;;;;;;;2.15;1.35;;;;;;;23.57;50.38;100687.28;16115326;19;131911;-59
2023/07/29 16:41:00;;;;;;;3.58;1.60;;;;;;;23.62;50.34;100690.94;16120324;19;130900;-61
2023/07/29 16:46:40;;;;;;;3.58;1.48;;;;;;;23.65;50.10;100684.75;16119793;19;129914;-62
2023/07/29 16:52:02;;;;;;;6.68;1.40;;;;;;;23.65;50.02;100672.75;16114802;19;129963;-63
2023/07/29 16:57:24;;;;;;;1.45;1.33;;;;;;;23.65;50.13;100672.75;16116440;19;130250;-51
2023/07/29 17:02:46;;;;;;;3.20;1.50;;;;;;;23.67;50.42;100681.69;16116071;19;130211;-61
2023/07/29 17:08:08;;;;;;;5.45;1.08;;;;;;;23.72;50.66;100672.44;16118831;19;129567;-61
2023/07/29 17:13:30;;;;;;;2.45;1.20;;;;;;;23.74;50.24;100668.22;16117232;19;129492;-60
2023/07/29 17:18:52;;;;;;;7.60;1.30;;;;;;;23.78;50.42;100685.25;16113102;19;131248;-60
2023/07/29 17:24:14;;;;;;;4.53;1.55;;;;;;;23.81;50.63;100681.88;16112947;19;129875;-61
2023/07/29 17:29:36;;;;;;;3.17;1.30;;;;;;;23.81;50.31;100685.53;16116520;19;130100;-62
2023/07/29 17:34:58;;;;;;;2.15;1.10;;;;;;;23.83;50.20;100690.81;16106179;19;134627;-60
2023/07/29 17:40:20;;;;;;;3.25;1.30;;;;;;;23.85;50.17;100691.38;16117286;19;133229;-59
2023/07/29 17:45:42;;;;;;;4.18;1.27;;;;;;;23.85;50.09;100699.75;16118732;19;130591;-59
2023/07/29 17:51:04;;;;;;;6.13;1.48;;;;;;;23.86;50.28;100707.00;16111788;19;130337;-59
2023/07/29 17:56:28;;;;;;;4.90;1.33;;;;;;;23.84;50.23;100714.84;16099448;19;130829;-60
2023/07/29 18:01:50;;;;;;;2.33;1.20;;;;;;;23.80;50.14;100714.59;16099649;19;131021;-61
2023/07/29 18:07:12;;;;;;;3.42;1.40;;;;;;;23.75;50.18;100725.75;16101606;19;131040;-60
2023/07/29 18:12:35;;;;;;;4.18;1.25;;;;;;;23.71;49.97;100733.03;16108381;19;129932;-61
2023/07/29 18:17:56;;;;;;;6.13;1.30;;;;;;;23.69;49.73;100740.03;16103956;19;129721;-61
2023/07/29 18:23:18;;;;;;;5.30;1.42;;;;;;;23.66;49.69;100747.88;16101205;19;129608;-65
2023/07/29 18:28:41;;;;;;;7.40;1.58;;;;;;;23.61;48.00;100745.09;16108544;19;134301;-69
2023/07/29 18:34:02;;;;;;;5.07;1.40;;;;;;;23.57;48.07;100755.13;16112128;19;131486;-61
2023/07/29 18:39:24;;;;;;;8.75;1.52;;;;;;;23.54;47.89;100760.47;16119743;19;130809;-66
2023/07/29 18:44:46;;;;;;;5.35;1.40;;;;;;;23.50;48.00;100766.59;16123004;19;131085;-71
2023/07/29 18:50:09;;;;;;;12.60;1.50;;;;;;;23.50;47.53;100782.53;16132109;19;129697;-67
2023/07/29 18:55:31;;;;;;;5.97;1.40;;;;;;;23.47;47.32;100777.50;16134662;19;129343;-66
2023/07/29 19:00:53;;;;;;;18.17;1.63;;;;;;;23.42;46.48;100781.16;16158855;19;130299;-67
2023/07/29 19:06:15;;;;;;;10.07;1.95;;;;;;;23.40;46.18;100782.53;16203759;19;130389;-64
2023/07/29 19:11:37;;;;;;;19.58;2.25;;;;;;;23.41;46.17;100800.94;16201977;19;128579;-65
2023/07/29 19:16:58;;;;;;;16.02;2.47;;;;;;;23.40;46.31;100802.06;16202297;19;128444;-70
2023/07/29 19:22:21;;;;;;;25.15;2.60;;;;;;;23.37;45.69;100811.84;16197344;19;128623;-60
2023/07/29 19:27:43;;;;;;;19.02;3.05;;;;;;;23.35;45.28;100814.94;16203638;19;129052;-65
2023/07/29 19:33:05;;;;;;;24.65;3.97;;;;;;;23.34;45.77;100810.47;16196248;19;130195;-64
2023/07/29 19:38:27;;;;;;;21.20;2.90;;;;;;;23.36;45.74;100821.34;16197450;19;129762;-69
2023/07/29 19:43:50;;;;;;;19.00;2.63;;;;;;;23.37;45.95;100836.16;16198439;19;130486;-66
2023/07/29 19:49:12;;;;;;;23.52;2.50;;;;;;;23.37;45.96;100833.38;16187289;19;130851;-63
2023/07/29 19:54:34;;;;;;;70.95;5.57;;;;;;;23.38;45.69;100837.84;16178534;19;130611;-63
2023/07/29 19:59:56;;;;;;;44.05;4.20;;;;;;;23.37;46.43;100839.78;16178645;19;130742;-65
2023/07/29 20:05:18;;;;;;;24.73;3.30;;;;;;;23.37;46.25;100838.94;16156949;19;131369;-60
2023/07/29 20:10:41;;;;;;;24.63;2.85;;;;;;;23.38;46.03;100837.84;16138411;19;130218;-62
2023/07/29 20:16:03;;;;;;;22.60;3.20;;;;;;;23.37;46.42;100833.38;16149212;19;129161;-62
2023/07/29 20:21:25;;;;;;;26.65;3.58;;;;;;;23.33;46.04;100830.28;16141874;19;129144;-62
2023/07/29 20:26:46;;;;;;;25.75;4.10;;;;;;;23.30;46.50;100823.31;16130869;19;129990;-67
2023/07/29 20:32:08;;;;;;;22.80;3.03;;;;;;;23.31;46.02;100830.56;16121585;19;130241;-59
2023/07/29 20:37:30;;;;;;;21.13;2.63;;;;;;;23.32;46.51;100832.25;16115283;19;130099;-59
2023/07/29 20:42:53;;;;;;;24.27;2.90;;;;;;;23.33;46.64;100831.13;16121575;19;129566;-68
2023/07/29 20:48:15;;;;;;;18.70;2.58;;;;;;;23.35;46.84;100844.78;16121067;19;129293;-65
2023/07/29 20:53:37;;;;;;;20.80;2.60;;;;;;;23.34;46.41;100841.19;16119791;19;130012;-65
2023/07/29 20:58:59;;;;;;;22.05;3.15;;;;;;;23.34;46.44;100851.50;16117501;19;129343;-64
2023/07/29 21:04:21;;;;;;;12.73;2.25;;;;;;;23.35;46.79;100844.78;16119131;19;129312;-62
2023/07/29 21:09:43;;;;;;;24.85;2.97;;;;;;;23.34;46.86;100851.50;16116388;19;130657;-63
2023/07/29 21:15:06;;;;;;;32.33;3.58;;;;;;;23.31;46.61;100852.91;16114614;19;129676;-63
2023/07/29 21:20:28;;;;;;;19.77;3.10;;;;;;;23.28;47.15;100850.66;16113348;19;130249;-63
2023/07/29 21:25:52;;;;;;;25.05;2.90;;;;;;;23.27;47.27;100851.78;16119694;19;130584;-64
2023/07/29 21:31:13;;;;;;;19.95;2.55;;;;;;;23.26;46.99;100855.72;16116323;19;130202;-65
2023/07/29 21:36:38;;;;;;;19.10;3.05;;;;;;;23.23;47.20;100859.06;16116146;19;130604;-73
2023/07/29 21:42:00;;;;;;;26.25;2.70;;;;;;;23.20;47.23;100860.44;16118792;19;130705;-64
2023/07/29 21:47:22;;;;;;;14.00;2.20;;;;;;;23.15;47.13;100854.00;16118933;19;130176;-61
2023/07/29 21:52:44;;;;;;;14.93;2.22;;;;;;;23.11;47.30;100859.31;16117693;19;129689;-61
2023/07/29 21:58:07;;;;;;;11.27;2.75;;;;;;;23.07;47.23;100860.16;16115053;19;131440;-61
2023/07/29 22:03:29;;;;;;;15.55;2.08;;;;;;;23.03;47.18;100863.50;16111860;19;129853;-62
2023/07/29 22:08:51;;;;;;;11.18;2.17;;;;;;;23.01;47.11;100860.16;16128898;19;129576;-62
2023/07/29 22:14:15;;;;;;;15.05;2.47;;;;;;;22.98;47.31;100863.50;16127870;19;131875;-62
2023/07/29 22:19:37;;;;;;;9.60;1.80;;;;;;;22.96;46.89;100868.53;16126071;19;129669;-61
2023/07/29 22:24:59;;;;;;;10.70;2.15;;;;;;;22.93;47.14;100866.28;16126338;19;130855;-61
2023/07/29 22:30:21;;;;;;;8.80;1.55;;;;;;;22.91;47.20;100876.88;16128149;19;130763;-61
2023/07/29 22:35:47;;;;;;;13.80;2.00;;;;;;;22.88;47.70;100875.47;16125798;19;129861;-62
2023/07/29 22:41:09;;;;;;;12.55;2.38;;;;;;;22.87;47.34;100889.69;16124678;19;132408;-62
2023/07/29 22:46:31;;;;;;;9.48;1.85;;;;;;;22.85;47.37;100886.34;16126336;19;129344;-62
2023/07/29 22:51:53;;;;;;;9.63;1.98;;;;;;;22.83;47.40;100885.78;16127447;19;130192;-62
2023/07/29 22:57:15;;;;;;;7.40;1.45;;;;;;;22.82;47.24;100892.47;16124889;19;130280;-61
2023/07/29 23:02:37;;;;;;;9.77;2.42;;;;;;;22.80;47.08;100892.75;16124644;19;129961;-63
2023/07/29 23:07:59;;;;;;;7.15;1.65;;;;;;;22.78;47.30;100903.34;16123799;19;129907;-63
2023/07/29 23:13:21;;;;;;;7.38;1.67;;;;;;;22.77;47.56;100909.19;16123858;19;130676;-62
2023/07/29 23:18:43;;;;;;;6.97;1.60;;;;;;;22.75;47.52;100901.09;16118142;19;130275;-62
2023/07/29 23:24:05;;;;;;;7.80;1.50;;;;;;;22.73;47.52;100909.75;16120446;19;129369;-62
2023/07/29 23:29:27;;;;;;;4.75;1.77;;;;;;;22.71;47.47;100917.53;16121515;19;129430;-62
2023/07/29 23:34:49;;;;;;;6.05;1.20;;;;;;;22.70;47.55;100918.66;16122606;19;129968;-62
2023/07/29 23:40:11;;;;;;;9.05;1.63;;;;;;;22.69;47.58;100918.94;16120242;19;129579;-63
2023/07/29 23:45:33;;;;;;;4.45;1.17;;;;;;;22.67;47.41;100916.41;16118550;19;130989;-62
2023/07/29 23:50:55;;;;;;;5.55;1.38;;;;;;;22.66;47.41;100923.09;16121605;19;130997;-62
2023/07/29 23:56:17;;;;;;;3.85;1.10;;;;;;;22.65;47.50;100915.00;16122107;19;129595;-61
